sensor_id;sensor_type;location;lat;lon;timestamp;temperature;humidity
34833;DHT22;55941;50.800;4.342;2023-05-21T00:01:42;15.70;99.90
34833;DHT22;55941;50.800;4.342;2023-05-21T00:04:10;15.70;99.90
34833;DHT22;55941;50.800;4.342;2023-05-21T00:06:37;15.70;99.90
34833;DHT22;55941;50.800;4.342;2023-05-21T00:09:04;15.70;99.90
34833;DHT22;55941;50.800;4.342;2023-05-21T00:11:30;15.70;99.90
34833;DHT22;55941;50.800;4.342;2023-05-21T00:13:57;15.60;99.90
34833;DHT22;55941;50.800;4.342;2023-05-21T00:16:24;15.50;99.90
34833;DHT22;55941;50.800;4.342;2023-05-21T00:18:50;15.60;99.90
34833;DHT22;55941;50.800;4.342;2023-05-21T00:21:19;15.50;99.90
34833;DHT22;55941;50.800;4.342;2023-05-21T00:23:53;15.50;99.90
34833;DHT22;55941;50.800;4.342;2023-05-21T00:26:20;15.40;99.90
34833;DHT22;55941;50.800;4.342;2023-05-21T00:28:49;15.40;99.90
34833;DHT22;55941;50.800;4.342;2023-05-21T00:31:15;15.40;99.90
34833;DHT22;55941;50.800;4.342;2023-05-21T00:33:42;15.40;99.90
34833;DHT22;55941;50.800;4.342;2023-05-21T00:36:07;15.30;99.90
34833;DHT22;55941;50.800;4.342;2023-05-21T00:38:33;15.30;99.90
34833;DHT22;55941;50.800;4.342;2023-05-21T00:41:01;15.30;99.90
34833;DHT22;55941;50.800;4.342;2023-05-21T00:43:27;15.40;99.90
34833;DHT22;55941;50.800;4.342;2023-05-21T00:45:53;15.30;99.90
34833;DHT22;55941;50.800;4.342;2023-05-21T00:48:20;15.30;99.90
34833;DHT22;55941;50.800;4.342;2023-05-21T00:50:46;15.30;99.90
34833;DHT22;55941;50.800;4.342;2023-05-21T00:53:14;15.30;99.90
34833;DHT22;55941;50.800;4.342;2023-05-21T00:55:44;15.20;99.90
34833;DHT22;55941;50.800;4.342;2023-05-21T00:58:11;15.20;99.90
34833;DHT22;55941;50.800;4.342;2023-05-21T01:00:37;15.20;99.90
34833;DHT22;55941;50.800;4.342;2023-05-21T01:03:05;15.00;99.90
34833;DHT22;55941;50.800;4.342;2023-05-21T01:05:32;15.00;99.90
34833;DHT22;55941;50.800;4.342;2023-05-21T01:07:58;15.00;99.90
34833;DHT22;55941;50.800;4.342;2023-05-21T01:10:24;15.00;99.90
34833;DHT22;55941;50.800;4.342;2023-05-21T01:12:51;14.90;99.90
34833;DHT22;55941;50.800;4.342;2023-05-21T01:15:19;14.90;99.90
34833;DHT22;55941;50.800;4.342;2023-05-21T01:17:47;14.90;99.90
34833;DHT22;55941;50.800;4.342;2023-05-21T01:20:15;14.80;99.90
34833;DHT22;55941;50.800;4.342;2023-05-21T01:22:52;14.90;99.90
34833;DHT22;55941;50.800;4.342;2023-05-21T01:25:18;14.90;99.90
34833;DHT22;55941;50.800;4.342;2023-05-21T01:27:44;14.80;99.90
34833;DHT22;55941;50.800;4.342;2023-05-21T01:30:10;14.90;99.90
34833;DHT22;55941;50.800;4.342;2023-05-21T01:35:24;14.80;99.90
34833;DHT22;55941;50.800;4.342;2023-05-21T01:37:57;14.70;99.90
34833;DHT22;55941;50.800;4.342;2023-05-21T01:41:01;14.80;99.90
34833;DHT22;55941;50.800;4.342;2023-05-21T01:43:37;14.70;99.90
34833;DHT22;55941;50.800;4.342;2023-05-21T01:46:04;14.70;99.90
34833;DHT22;55941;50.800;4.342;2023-05-21T01:48:30;14.60;99.90
34833;DHT22;55941;50.800;4.342;2023-05-21T01:51:02;14.60;99.90
34833;DHT22;55941;50.800;4.342;2023-05-21T01:53:29;14.60;99.90
34833;DHT22;55941;50.800;4.342;2023-05-21T01:55:55;14.60;99.90
34833;DHT22;55941;50.800;4.342;2023-05-21T01:58:21;14.60;99.90
34833;DHT22;55941;50.800;4.342;2023-05-21T02:00:49;14.60;99.90
34833;DHT22;55941;50.800;4.342;2023-05-21T02:03:19;14.60;99.90
34833;DHT22;55941;50.800;4.342;2023-05-21T02:05:45;14.70;99.90
34833;DHT22;55941;50.800;4.342;2023-05-21T02:08:11;14.70;99.90
34833;DHT22;55941;50.800;4.342;2023-05-21T02:10:39;14.70;99.90
34833;DHT22;55941;50.800;4.342;2023-05-21T02:13:05;14.80;99.90
34833;DHT22;55941;50.800;4.342;2023-05-21T02:15:31;14.70;99.90
34833;DHT22;55941;50.800;4.342;2023-05-21T02:17:59;14.70;99.90
34833;DHT22;55941;50.800;4.342;2023-05-21T02:20:25;14.60;99.90
34833;DHT22;55941;50.800;4.342;2023-05-21T02:22:52;14.60;99.90
34833;DHT22;55941;50.800;4.342;2023-05-21T02:25:18;14.60;99.90
34833;DHT22;55941;50.800;4.342;2023-05-21T02:27:44;14.60;99.90
34833;DHT22;55941;50.800;4.342;2023-05-21T02:30:13;14.60;99.90
34833;DHT22;55941;50.800;4.342;2023-05-21T02:32:40;14.60;99.90
34833;DHT22;55941;50.800;4.342;2023-05-21T02:35:08;14.60;99.90
34833;DHT22;55941;50.800;4.342;2023-05-21T02:37:34;14.60;99.90
34833;DHT22;55941;50.800;4.342;2023-05-21T02:40:02;14.60;99.90
34833;DHT22;55941;50.800;4.342;2023-05-21T02:42:29;14.50;99.90
34833;DHT22;55941;50.800;4.342;2023-05-21T02:44:55;14.50;99.90
34833;DHT22;55941;50.800;4.342;2023-05-21T02:47:21;14.50;99.90
34833;DHT22;55941;50.800;4.342;2023-05-21T02:49:49;14.50;99.90
34833;DHT22;55941;50.800;4.342;2023-05-21T02:52:16;14.60;99.90
34833;DHT22;55941;50.800;4.342;2023-05-21T02:54:46;14.60;99.90
34833;DHT22;55941;50.800;4.342;2023-05-21T02:57:13;14.60;99.90
34833;DHT22;55941;50.800;4.342;2023-05-21T02:59:38;14.50;99.90
34833;DHT22;55941;50.800;4.342;2023-05-21T03:02:04;14.60;99.90
34833;DHT22;55941;50.800;4.342;2023-05-21T03:04:30;14.60;99.90
34833;DHT22;55941;50.800;4.342;2023-05-21T03:06:58;14.70;99.90
34833;DHT22;55941;50.800;4.342;2023-05-21T03:09:27;14.70;99.90
34833;DHT22;55941;50.800;4.342;2023-05-21T03:11:52;14.60;99.90
34833;DHT22;55941;50.800;4.342;2023-05-21T03:14:18;14.70;99.90
34833;DHT22;55941;50.800;4.342;2023-05-21T03:16:44;14.70;99.90
34833;DHT22;55941;50.800;4.342;2023-05-21T03:19:10;14.60;99.90
34833;DHT22;55941;50.800;4.342;2023-05-21T03:21:36;14.70;99.90
34833;DHT22;55941;50.800;4.342;2023-05-21T03:24:03;14.70;99.90
34833;DHT22;55941;50.800;4.342;2023-05-21T03:26:29;14.60;99.90
34833;DHT22;55941;50.800;4.342;2023-05-21T03:28:55;14.50;99.90
34833;DHT22;55941;50.800;4.342;2023-05-21T03:31:22;14.40;99.90
34833;DHT22;55941;50.800;4.342;2023-05-21T03:33:48;14.30;99.90
34833;DHT22;55941;50.800;4.342;2023-05-21T03:36:14;14.30;99.90
34833;DHT22;55941;50.800;4.342;2023-05-21T03:38:39;14.30;99.90
34833;DHT22;55941;50.800;4.342;2023-05-21T03:41:07;14.40;99.90
34833;DHT22;55941;50.800;4.342;2023-05-21T03:43:33;14.50;99.90
34833;DHT22;55941;50.800;4.342;2023-05-21T03:45:59;14.50;99.90
34833;DHT22;55941;50.800;4.342;2023-05-21T03:48:25;14.40;99.90
34833;DHT22;55941;50.800;4.342;2023-05-21T03:50:50;14.40;99.90
34833;DHT22;55941;50.800;4.342;2023-05-21T03:53:16;14.40;99.90
34833;DHT22;55941;50.800;4.342;2023-05-21T03:55:42;14.30;99.90
34833;DHT22;55941;50.800;4.342;2023-05-21T03:58:08;14.30;99.90
34833;DHT22;55941;50.800;4.342;2023-05-21T04:00:38;14.30;99.90
34833;DHT22;55941;50.800;4.342;2023-05-21T04:03:05;14.40;99.90
34833;DHT22;55941;50.800;4.342;2023-05-21T04:06:01;14.50;99.90
34833;DHT22;55941;50.800;4.342;2023-05-21T04:08:30;14.40;99.90
34833;DHT22;55941;50.800;4.342;2023-05-21T04:10:56;14.40;99.90
34833;DHT22;55941;50.800;4.342;2023-05-21T04:13:22;14.40;99.90
34833;DHT22;55941;50.800;4.342;2023-05-21T04:15:48;14.30;99.90
34833;DHT22;55941;50.800;4.342;2023-05-21T04:18:14;14.30;99.90
34833;DHT22;55941;50.800;4.342;2023-05-21T04:20:45;14.40;99.90
34833;DHT22;55941;50.800;4.342;2023-05-21T04:23:10;14.50;99.90
34833;DHT22;55941;50.800;4.342;2023-05-21T04:25:36;14.40;99.90
34833;DHT22;55941;50.800;4.342;2023-05-21T04:28:03;14.40;99.90
34833;DHT22;55941;50.800;4.342;2023-05-21T04:30:30;14.40;99.90
34833;DHT22;55941;50.800;4.342;2023-05-21T04:32:55;14.40;99.90
34833;DHT22;55941;50.800;4.342;2023-05-21T04:35:22;14.50;99.90
34833;DHT22;55941;50.800;4.342;2023-05-21T04:37:48;14.50;99.90
34833;DHT22;55941;50.800;4.342;2023-05-21T04:40:13;14.60;99.90
34833;DHT22;55941;50.800;4.342;2023-05-21T04:42:51;14.60;99.90
34833;DHT22;55941;50.800;4.342;2023-05-21T04:45:17;14.60;99.90
34833;DHT22;55941;50.800;4.342;2023-05-21T04:47:43;14.70;99.90
34833;DHT22;55941;50.800;4.342;2023-05-21T04:50:09;14.60;99.90
34833;DHT22;55941;50.800;4.342;2023-05-21T04:52:35;14.60;99.90
34833;DHT22;55941;50.800;4.342;2023-05-21T04:55:02;14.70;99.90
34833;DHT22;55941;50.800;4.342;2023-05-21T04:57:28;14.60;99.90
34833;DHT22;55941;50.800;4.342;2023-05-21T04:59:54;14.60;99.90
34833;DHT22;55941;50.800;4.342;2023-05-21T05:02:21;14.70;99.90
34833;DHT22;55941;50.800;4.342;2023-05-21T05:04:47;14.60;99.90
34833;DHT22;55941;50.800;4.342;2023-05-21T05:07:12;14.60;99.90
34833;DHT22;55941;50.800;4.342;2023-05-21T05:09:39;14.60;99.90
34833;DHT22;55941;50.800;4.342;2023-05-21T05:12:05;14.70;99.90
34833;DHT22;55941;50.800;4.342;2023-05-21T05:14:31;14.60;99.90
34833;DHT22;55941;50.800;4.342;2023-05-21T05:16:57;14.70;99.90
34833;DHT22;55941;50.800;4.342;2023-05-21T05:19:26;14.80;99.90
34833;DHT22;55941;50.800;4.342;2023-05-21T05:21:52;14.80;99.90
34833;DHT22;55941;50.800;4.342;2023-05-21T05:24:17;14.80;99.90
34833;DHT22;55941;50.800;4.342;2023-05-21T05:26:44;14.70;99.90
34833;DHT22;55941;50.800;4.342;2023-05-21T05:29:09;14.80;99.90
34833;DHT22;55941;50.800;4.342;2023-05-21T05:31:36;14.90;99.90
34833;DHT22;55941;50.800;4.342;2023-05-21T05:34:02;14.90;99.90
34833;DHT22;55941;50.800;4.342;2023-05-21T05:36:28;15.00;99.90
34833;DHT22;55941;50.800;4.342;2023-05-21T05:38:53;15.00;99.90
34833;DHT22;55941;50.800;4.342;2023-05-21T05:41:19;15.00;99.90
34833;DHT22;55941;50.800;4.342;2023-05-21T05:43:45;15.00;99.90
34833;DHT22;55941;50.800;4.342;2023-05-21T05:46:12;15.10;99.90
34833;DHT22;55941;50.800;4.342;2023-05-21T05:48:38;15.10;99.90
34833;DHT22;55941;50.800;4.342;2023-05-21T05:51:04;15.10;99.90
34833;DHT22;55941;50.800;4.342;2023-05-21T05:53:30;15.10;99.90
34833;DHT22;55941;50.800;4.342;2023-05-21T05:55:56;15.20;99.90
34833;DHT22;55941;50.800;4.342;2023-05-21T05:58:22;15.20;99.90
34833;DHT22;55941;50.800;4.342;2023-05-21T06:00:48;15.30;99.90
34833;DHT22;55941;50.800;4.342;2023-05-21T06:03:14;15.30;99.90
34833;DHT22;55941;50.800;4.342;2023-05-21T06:05:39;15.20;99.90
34833;DHT22;55941;50.800;4.342;2023-05-21T06:08:05;15.20;99.90
34833;DHT22;55941;50.800;4.342;2023-05-21T06:10:31;15.20;99.90
34833;DHT22;55941;50.800;4.342;2023-05-21T06:12:57;15.20;99.90
34833;DHT22;55941;50.800;4.342;2023-05-21T06:15:23;15.30;99.90
34833;DHT22;55941;50.800;4.342;2023-05-21T06:17:49;15.40;99.90
34833;DHT22;55941;50.800;4.342;2023-05-21T06:20:15;15.50;99.90
34833;DHT22;55941;50.800;4.342;2023-05-21T06:22:42;15.40;99.90
34833;DHT22;55941;50.800;4.342;2023-05-21T06:25:09;15.50;99.90
34833;DHT22;55941;50.800;4.342;2023-05-21T06:27:36;15.60;99.90
34833;DHT22;55941;50.800;4.342;2023-05-21T06:30:05;15.80;99.90
34833;DHT22;55941;50.800;4.342;2023-05-21T06:32:32;15.70;99.90
34833;DHT22;55941;50.800;4.342;2023-05-21T06:34:58;15.70;99.90
34833;DHT22;55941;50.800;4.342;2023-05-21T06:37:26;15.70;99.90
34833;DHT22;55941;50.800;4.342;2023-05-21T06:39:52;15.70;99.90
34833;DHT22;55941;50.800;4.342;2023-05-21T06:42:18;15.80;99.90
34833;DHT22;55941;50.800;4.342;2023-05-21T06:44:43;15.90;99.90
34833;DHT22;55941;50.800;4.342;2023-05-21T06:47:09;16.00;99.90
34833;DHT22;55941;50.800;4.342;2023-05-21T06:49:35;16.10;99.90
34833;DHT22;55941;50.800;4.342;2023-05-21T06:52:01;16.20;99.90
34833;DHT22;55941;50.800;4.342;2023-05-21T06:54:26;16.30;99.90
34833;DHT22;55941;50.800;4.342;2023-05-21T06:56:52;16.40;99.90
34833;DHT22;55941;50.800;4.342;2023-05-21T06:59:18;16.40;99.90
34833;DHT22;55941;50.800;4.342;2023-05-21T07:01:43;16.50;99.90
34833;DHT22;55941;50.800;4.342;2023-05-21T07:04:10;16.60;99.90
34833;DHT22;55941;50.800;4.342;2023-05-21T07:06:35;16.70;99.90
34833;DHT22;55941;50.800;4.342;2023-05-21T07:09:03;16.70;99.90
34833;DHT22;55941;50.800;4.342;2023-05-21T07:11:30;16.80;99.90
34833;DHT22;55941;50.800;4.342;2023-05-21T07:13:58;16.70;99.90
34833;DHT22;55941;50.800;4.342;2023-05-21T07:16:26;16.70;99.90
34833;DHT22;55941;50.800;4.342;2023-05-21T07:18:52;16.80;99.90
34833;DHT22;55941;50.800;4.342;2023-05-21T07:21:18;16.90;99.90
34833;DHT22;55941;50.800;4.342;2023-05-21T07:23:43;17.00;99.90
34833;DHT22;55941;50.800;4.342;2023-05-21T07:26:10;17.00;99.90
34833;DHT22;55941;50.800;4.342;2023-05-21T07:28:36;17.10;99.90
34833;DHT22;55941;50.800;4.342;2023-05-21T07:31:01;16.90;99.90
34833;DHT22;55941;50.800;4.342;2023-05-21T07:33:27;17.00;99.90
34833;DHT22;55941;50.800;4.342;2023-05-21T07:35:53;17.00;99.90
34833;DHT22;55941;50.800;4.342;2023-05-21T07:38:19;17.10;99.90
34833;DHT22;55941;50.800;4.342;2023-05-21T07:40:45;17.30;99.90
34833;DHT22;55941;50.800;4.342;2023-05-21T07:43:12;17.40;99.90
34833;DHT22;55941;50.800;4.342;2023-05-21T07:45:38;17.30;99.90
34833;DHT22;55941;50.800;4.342;2023-05-21T07:48:04;17.40;99.90
34833;DHT22;55941;50.800;4.342;2023-05-21T07:50:30;17.60;99.90
34833;DHT22;55941;50.800;4.342;2023-05-21T07:52:56;17.60;99.90
34833;DHT22;55941;50.800;4.342;2023-05-21T07:55:22;17.70;99.90
34833;DHT22;55941;50.800;4.342;2023-05-21T07:57:48;17.80;99.90
34833;DHT22;55941;50.800;4.342;2023-05-21T08:00:17;17.90;99.90
34833;DHT22;55941;50.800;4.342;2023-05-21T08:02:43;18.00;99.90
34833;DHT22;55941;50.800;4.342;2023-05-21T08:05:09;18.10;99.90
34833;DHT22;55941;50.800;4.342;2023-05-21T08:07:35;18.20;99.90
34833;DHT22;55941;50.800;4.342;2023-05-21T08:10:02;18.30;99.90
34833;DHT22;55941;50.800;4.342;2023-05-21T08:12:29;18.10;99.90
34833;DHT22;55941;50.800;4.342;2023-05-21T08:14:59;18.00;99.90
34833;DHT22;55941;50.800;4.342;2023-05-21T08:17:24;18.10;99.90
34833;DHT22;55941;50.800;4.342;2023-05-21T08:19:53;18.00;99.90
34833;DHT22;55941;50.800;4.342;2023-05-21T08:22:20;17.90;99.90
34833;DHT22;55941;50.800;4.342;2023-05-21T08:24:46;18.00;99.90
34833;DHT22;55941;50.800;4.342;2023-05-21T08:27:13;18.00;99.90
34833;DHT22;55941;50.800;4.342;2023-05-21T08:29:40;18.20;99.90
34833;DHT22;55941;50.800;4.342;2023-05-21T08:32:07;18.20;99.90
34833;DHT22;55941;50.800;4.342;2023-05-21T08:34:34;18.40;99.90
34833;DHT22;55941;50.800;4.342;2023-05-21T08:37:00;18.30;99.90
34833;DHT22;55941;50.800;4.342;2023-05-21T08:39:26;18.50;99.90
34833;DHT22;55941;50.800;4.342;2023-05-21T08:42:06;18.70;99.90
34833;DHT22;55941;50.800;4.342;2023-05-21T08:44:36;18.70;99.90
34833;DHT22;55941;50.800;4.342;2023-05-21T08:47:05;18.80;99.90
34833;DHT22;55941;50.800;4.342;2023-05-21T08:49:33;18.80;99.90
34833;DHT22;55941;50.800;4.342;2023-05-21T08:52:01;18.80;99.90
34833;DHT22;55941;50.800;4.342;2023-05-21T08:54:28;18.80;99.90
34833;DHT22;55941;50.800;4.342;2023-05-21T08:56:54;19.00;99.90
34833;DHT22;55941;50.800;4.342;2023-05-21T08:59:21;19.10;99.90
34833;DHT22;55941;50.800;4.342;2023-05-21T09:01:48;19.20;99.90
34833;DHT22;55941;50.800;4.342;2023-05-21T09:04:16;19.40;99.90
34833;DHT22;55941;50.800;4.342;2023-05-21T09:06:43;19.40;99.90
34833;DHT22;55941;50.800;4.342;2023-05-21T09:09:20;19.50;99.90
34833;DHT22;55941;50.800;4.342;2023-05-21T09:11:50;19.50;99.90
34833;DHT22;55941;50.800;4.342;2023-05-21T09:14:17;19.60;99.90
34833;DHT22;55941;50.800;4.342;2023-05-21T09:16:45;19.60;99.90
34833;DHT22;55941;50.800;4.342;2023-05-21T09:19:13;19.70;99.90
34833;DHT22;55941;50.800;4.342;2023-05-21T09:21:38;19.60;99.90
34833;DHT22;55941;50.800;4.342;2023-05-21T09:24:05;19.70;99.90
34833;DHT22;55941;50.800;4.342;2023-05-21T09:26:36;19.90;99.90
34833;DHT22;55941;50.800;4.342;2023-05-21T09:29:03;20.00;99.90
34833;DHT22;55941;50.800;4.342;2023-05-21T09:31:29;20.20;99.90
34833;DHT22;55941;50.800;4.342;2023-05-21T09:33:56;20.20;99.90
34833;DHT22;55941;50.800;4.342;2023-05-21T09:36:22;20.20;99.90
34833;DHT22;55941;50.800;4.342;2023-05-21T09:38:58;20.30;99.90
34833;DHT22;55941;50.800;4.342;2023-05-21T09:41:51;20.30;99.90
34833;DHT22;55941;50.800;4.342;2023-05-21T09:44:17;20.30;99.90
34833;DHT22;55941;50.800;4.342;2023-05-21T09:46:43;20.50;99.90
34833;DHT22;55941;50.800;4.342;2023-05-21T09:49:27;20.60;99.90
34833;DHT22;55941;50.800;4.342;2023-05-21T09:51:57;20.70;99.90
34833;DHT22;55941;50.800;4.342;2023-05-21T09:54:35;20.80;99.90
34833;DHT22;55941;50.800;4.342;2023-05-21T09:57:04;20.80;99.90
34833;DHT22;55941;50.800;4.342;2023-05-21T09:59:40;20.70;99.90
34833;DHT22;55941;50.800;4.342;2023-05-21T10:02:22;20.80;99.90
34833;DHT22;55941;50.800;4.342;2023-05-21T10:04:50;21.00;99.90
34833;DHT22;55941;50.800;4.342;2023-05-21T10:07:21;21.10;99.90
34833;DHT22;55941;50.800;4.342;2023-05-21T10:09:54;21.10;99.90
34833;DHT22;55941;50.800;4.342;2023-05-21T10:12:22;21.20;99.90
34833;DHT22;55941;50.800;4.342;2023-05-21T10:15:00;21.30;99.90
34833;DHT22;55941;50.800;4.342;2023-05-21T10:17:29;21.30;99.90
34833;DHT22;55941;50.800;4.342;2023-05-21T10:19:55;21.40;99.90
34833;DHT22;55941;50.800;4.342;2023-05-21T10:22:23;21.40;99.90
34833;DHT22;55941;50.800;4.342;2023-05-21T10:24:51;21.50;99.90
34833;DHT22;55941;50.800;4.342;2023-05-21T10:27:18;21.60;99.90
34833;DHT22;55941;50.800;4.342;2023-05-21T10:29:45;21.80;99.90
34833;DHT22;55941;50.800;4.342;2023-05-21T10:32:14;21.90;99.90
34833;DHT22;55941;50.800;4.342;2023-05-21T10:34:42;22.10;99.90
34833;DHT22;55941;50.800;4.342;2023-05-21T10:37:08;22.20;99.90
34833;DHT22;55941;50.800;4.342;2023-05-21T10:39:38;22.40;99.90
34833;DHT22;55941;50.800;4.342;2023-05-21T10:42:14;22.40;99.90
34833;DHT22;55941;50.800;4.342;2023-05-21T10:53:18;23.10;99.90
34833;DHT22;55941;50.800;4.342;2023-05-21T10:56:22;23.30;99.90
34833;DHT22;55941;50.800;4.342;2023-05-21T11:01:39;24.30;98.60
34833;DHT22;55941;50.800;4.342;2023-05-21T11:04:05;24.40;98.20
34833;DHT22;55941;50.800;4.342;2023-05-21T11:06:37;24.60;97.80
34833;DHT22;55941;50.800;4.342;2023-05-21T11:09:16;24.70;97.50
34833;DHT22;55941;50.800;4.342;2023-05-21T11:11:44;24.70;97.80
34833;DHT22;55941;50.800;4.342;2023-05-21T11:16:53;25.00;97.30
34833;DHT22;55941;50.800;4.342;2023-05-21T11:19:19;25.00;97.00
34833;DHT22;55941;50.800;4.342;2023-05-21T11:21:54;25.00;96.70
34833;DHT22;55941;50.800;4.342;2023-05-21T11:24:20;25.00;97.10
34833;DHT22;55941;50.800;4.342;2023-05-21T11:29:19;24.60;96.70
34833;DHT22;55941;50.800;4.342;2023-05-21T11:31:59;24.40;97.00
34833;DHT22;55941;50.800;4.342;2023-05-21T11:39:43;23.90;98.30
34833;DHT22;55941;50.800;4.342;2023-05-21T11:42:09;24.10;98.20
34833;DHT22;55941;50.800;4.342;2023-05-21T11:44:44;24.30;98.00
34833;DHT22;55941;50.800;4.342;2023-05-21T11:47:17;24.50;97.30
34833;DHT22;55941;50.800;4.342;2023-05-21T11:49:44;24.70;96.90
34833;DHT22;55941;50.800;4.342;2023-05-21T11:52:12;25.00;96.80
34833;DHT22;55941;50.800;4.342;2023-05-21T11:54:52;25.00;97.30
34833;DHT22;55941;50.800;4.342;2023-05-21T11:57:24;25.40;96.60
34833;DHT22;55941;50.800;4.342;2023-05-21T11:59:52;25.60;95.70
34833;DHT22;55941;50.800;4.342;2023-05-21T12:02:20;25.50;96.00
34833;DHT22;55941;50.800;4.342;2023-05-21T12:04:49;25.50;96.00
34833;DHT22;55941;50.800;4.342;2023-05-21T12:07:18;25.10;96.10
34833;DHT22;55941;50.800;4.342;2023-05-21T12:09:48;25.20;96.10
34833;DHT22;55941;50.800;4.342;2023-05-21T12:12:16;25.10;96.00
34833;DHT22;55941;50.800;4.342;2023-05-21T12:14:52;25.20;96.00
34833;DHT22;55941;50.800;4.342;2023-05-21T12:17:21;25.30;95.40
34833;DHT22;55941;50.800;4.342;2023-05-21T12:19:50;25.20;95.80
34833;DHT22;55941;50.800;4.342;2023-05-21T12:22:17;25.30;95.60
34833;DHT22;55941;50.800;4.342;2023-05-21T12:24:44;25.20;96.00
34833;DHT22;55941;50.800;4.342;2023-05-21T12:27:13;25.30;96.00
34833;DHT22;55941;50.800;4.342;2023-05-21T12:29:47;25.80;96.00
34833;DHT22;55941;50.800;4.342;2023-05-21T12:32:15;26.10;95.10
34833;DHT22;55941;50.800;4.342;2023-05-21T12:34:53;26.00;95.10
34833;DHT22;55941;50.800;4.342;2023-05-21T12:37:29;26.20;95.40
34833;DHT22;55941;50.800;4.342;2023-05-21T12:40:02;26.60;94.70
34833;DHT22;55941;50.800;4.342;2023-05-21T12:42:38;26.70;94.30
34833;DHT22;55941;50.800;4.342;2023-05-21T12:45:07;26.60;94.10
34833;DHT22;55941;50.800;4.342;2023-05-21T12:47:33;26.50;94.10
34833;DHT22;55941;50.800;4.342;2023-05-21T12:50:00;26.30;93.90
34833;DHT22;55941;50.800;4.342;2023-05-21T12:52:27;26.20;94.00
34833;DHT22;55941;50.800;4.342;2023-05-21T12:54:55;26.30;93.90
34833;DHT22;55941;50.800;4.342;2023-05-21T12:57:24;26.40;94.10
34833;DHT22;55941;50.800;4.342;2023-05-21T12:59:58;26.60;93.70
34833;DHT22;55941;50.800;4.342;2023-05-21T13:02:32;26.70;93.70
34833;DHT22;55941;50.800;4.342;2023-05-21T13:05:06;26.50;94.20
34833;DHT22;55941;50.800;4.342;2023-05-21T13:07:35;26.80;93.70
34833;DHT22;55941;50.800;4.342;2023-05-21T13:10:02;27.30;93.10
34833;DHT22;55941;50.800;4.342;2023-05-21T13:12:30;27.90;93.10
34833;DHT22;55941;50.800;4.342;2023-05-21T13:14:58;28.60;92.20
34833;DHT22;55941;50.800;4.342;2023-05-21T13:17:25;28.80;91.40
34833;DHT22;55941;50.800;4.342;2023-05-21T13:20:08;28.50;91.30
34833;DHT22;55941;50.800;4.342;2023-05-21T13:22:36;28.20;91.40
34833;DHT22;55941;50.800;4.342;2023-05-21T13:25:12;28.00;91.40
34833;DHT22;55941;50.800;4.342;2023-05-21T13:27:41;27.80;91.60
34833;DHT22;55941;50.800;4.342;2023-05-21T13:30:08;27.70;91.50
34833;DHT22;55941;50.800;4.342;2023-05-21T13:32:36;27.80;91.50
34833;DHT22;55941;50.800;4.342;2023-05-21T13:35:02;27.90;91.30
34833;DHT22;55941;50.800;4.342;2023-05-21T13:37:29;28.30;91.50
34833;DHT22;55941;50.800;4.342;2023-05-21T13:39:55;28.60;91.00
34833;DHT22;55941;50.800;4.342;2023-05-21T13:42:22;28.10;91.30
34833;DHT22;55941;50.800;4.342;2023-05-21T13:44:48;27.80;91.80
34833;DHT22;55941;50.800;4.342;2023-05-21T13:47:15;27.80;91.70
34833;DHT22;55941;50.800;4.342;2023-05-21T13:49:41;28.30;91.30
34833;DHT22;55941;50.800;4.342;2023-05-21T13:52:07;28.20;91.10
34833;DHT22;55941;50.800;4.342;2023-05-21T13:54:35;28.50;91.10
34833;DHT22;55941;50.800;4.342;2023-05-21T13:57:02;28.70;90.40
34833;DHT22;55941;50.800;4.342;2023-05-21T13:59:28;28.60;90.60
34833;DHT22;55941;50.800;4.342;2023-05-21T14:01:54;28.90;90.50
34833;DHT22;55941;50.800;4.342;2023-05-21T14:04:20;29.50;89.90
34833;DHT22;55941;50.800;4.342;2023-05-21T14:06:46;30.00;88.50
34833;DHT22;55941;50.800;4.342;2023-05-21T14:09:12;30.20;88.00
34833;DHT22;55941;50.800;4.342;2023-05-21T14:11:38;30.00;87.30
34833;DHT22;55941;50.800;4.342;2023-05-21T14:14:04;29.90;87.60
34833;DHT22;55941;50.800;4.342;2023-05-21T14:16:30;29.90;87.50
34833;DHT22;55941;50.800;4.342;2023-05-21T14:18:56;30.00;86.60
34833;DHT22;55941;50.800;4.342;2023-05-21T14:21:23;29.70;86.70
34833;DHT22;55941;50.800;4.342;2023-05-21T14:23:49;29.70;86.80
34833;DHT22;55941;50.800;4.342;2023-05-21T14:26:15;30.00;86.70
34833;DHT22;55941;50.800;4.342;2023-05-21T14:28:42;30.80;85.80
34833;DHT22;55941;50.800;4.342;2023-05-21T14:31:08;31.70;83.40
34833;DHT22;55941;50.800;4.342;2023-05-21T14:33:38;31.50;81.90
34833;DHT22;55941;50.800;4.342;2023-05-21T14:36:06;31.10;82.80
34833;DHT22;55941;50.800;4.342;2023-05-21T14:38:32;31.70;82.10
34833;DHT22;55941;50.800;4.342;2023-05-21T14:40:57;32.50;80.10
34833;DHT22;55941;50.800;4.342;2023-05-21T14:43:23;33.20;78.30
34833;DHT22;55941;50.800;4.342;2023-05-21T14:45:49;32.90;77.00
34833;DHT22;55941;50.800;4.342;2023-05-21T14:48:18;32.40;77.40
34833;DHT22;55941;50.800;4.342;2023-05-21T14:50:48;32.60;78.00
34833;DHT22;55941;50.800;4.342;2023-05-21T14:53:14;33.50;77.20
34833;DHT22;55941;50.800;4.342;2023-05-21T14:55:40;33.70;74.10
34833;DHT22;55941;50.800;4.342;2023-05-21T14:58:06;33.20;74.70
34833;DHT22;55941;50.800;4.342;2023-05-21T15:00:33;33.20;74.70
34833;DHT22;55941;50.800;4.342;2023-05-21T15:03:00;33.40;74.30
34833;DHT22;55941;50.800;4.342;2023-05-21T15:05:26;33.60;73.80
34833;DHT22;55941;50.800;4.342;2023-05-21T15:07:55;32.90;74.40
34833;DHT22;55941;50.800;4.342;2023-05-21T15:10:23;32.00;75.60
34833;DHT22;55941;50.800;4.342;2023-05-21T15:12:51;31.30;77.80
34833;DHT22;55941;50.800;4.342;2023-05-21T15:15:18;31.20;77.90
34833;DHT22;55941;50.800;4.342;2023-05-21T15:17:46;31.50;77.30
34833;DHT22;55941;50.800;4.342;2023-05-21T15:20:12;31.70;76.60
34833;DHT22;55941;50.800;4.342;2023-05-21T15:22:39;31.30;76.80
34833;DHT22;55941;50.800;4.342;2023-05-21T15:25:05;30.80;77.90
34833;DHT22;55941;50.800;4.342;2023-05-21T15:27:31;30.10;80.00
34833;DHT22;55941;50.800;4.342;2023-05-21T15:30:00;30.10;80.50
34833;DHT22;55941;50.800;4.342;2023-05-21T15:32:27;30.70;79.00
34833;DHT22;55941;50.800;4.342;2023-05-21T15:34:54;31.00;77.90
34833;DHT22;55941;50.800;4.342;2023-05-21T15:37:20;30.90;78.20
34833;DHT22;55941;50.800;4.342;2023-05-21T15:39:47;30.40;78.90
34833;DHT22;55941;50.800;4.342;2023-05-21T15:42:16;29.80;80.40
34833;DHT22;55941;50.800;4.342;2023-05-21T15:44:42;29.30;82.00
34833;DHT22;55941;50.800;4.342;2023-05-21T15:47:08;28.90;82.60
34833;DHT22;55941;50.800;4.342;2023-05-21T15:49:34;29.00;82.80
34833;DHT22;55941;50.800;4.342;2023-05-21T15:52:01;29.70;82.70
34833;DHT22;55941;50.800;4.342;2023-05-21T15:54:27;30.80;79.40
34833;DHT22;55941;50.800;4.342;2023-05-21T15:56:53;31.70;77.90
34833;DHT22;55941;50.800;4.342;2023-05-21T15:59:19;31.80;76.50